createdAt,value
2023-02-08T00:00:07.516Z,-6.00
2023-02-08T00:02:34.394Z,-6.00
2023-02-08T00:05:01.335Z,-6.10
2023-02-08T00:07:28.320Z,-6.10
2023-02-08T00:09:55.270Z,-6.10
2023-02-08T00:12:22.164Z,-6.10
2023-02-08T00:14:49.061Z,-6.20
2023-02-08T00:17:15.941Z,-6.20
2023-02-08T00:19:43.001Z,-6.20
2023-02-08T00:22:09.860Z,-6.20
2023-02-08T00:24:36.744Z,-6.30
2023-02-08T00:27:03.660Z,-6.30
2023-02-08T00:29:30.576Z,-6.30
2023-02-08T00:31:58.623Z,-6.30
2023-02-08T00:34:25.536Z,-6.30
2023-02-08T00:36:52.443Z,-6.30
2023-02-08T00:39:21.205Z,-6.30
2023-02-08T00:41:48.178Z,-6.40
2023-02-08T00:44:15.212Z,-6.40
2023-02-08T00:46:42.143Z,-6.50
2023-02-08T00:49:09.049Z,-6.50
2023-02-08T00:51:35.946Z,-6.50
2023-02-08T00:54:02.939Z,-6.50
2023-02-08T00:56:29.796Z,-6.50
2023-02-08T00:58:59.560Z,-6.50
2023-02-08T01:01:26.442Z,-6.60
2023-02-08T01:03:53.306Z,-6.50
2023-02-08T01:06:20.786Z,-6.50
2023-02-08T01:08:47.676Z,-6.60
2023-02-08T01:11:21.798Z,-6.60
2023-02-08T01:13:49.120Z,-6.70
2023-02-08T01:16:17.849Z,-6.70
2023-02-08T01:18:45.863Z,-6.70
2023-02-08T01:21:17.379Z,-6.70
2023-02-08T01:23:44.543Z,-6.80
2023-02-08T01:26:12.648Z,-6.80
2023-02-08T01:28:40.038Z,-6.80
2023-02-08T01:31:08.343Z,-6.80
2023-02-08T01:33:35.583Z,-6.80
2023-02-08T01:36:02.624Z,-6.80
2023-02-08T01:38:29.568Z,-6.80
2023-02-08T01:40:58.106Z,-6.80
2023-02-08T01:43:27.392Z,-6.80
2023-02-08T01:45:54.798Z,-6.80
2023-02-08T01:48:24.343Z,-6.80
2023-02-08T01:50:57.538Z,-6.90
2023-02-08T01:53:25.805Z,-6.90
2023-02-08T01:55:54.819Z,-7.00
2023-02-08T01:58:22.305Z,-7.00
2023-02-08T02:00:49.319Z,-7.00
2023-02-08T02:03:16.880Z,-7.10
2023-02-08T02:05:46.406Z,-7.10
2023-02-08T02:08:13.502Z,-7.00
2023-02-08T02:10:41.727Z,-7.00
2023-02-08T02:13:08.895Z,-7.00
2023-02-08T02:15:35.943Z,-7.10
2023-02-08T02:18:05.355Z,-7.10
2023-02-08T02:20:41.814Z,-7.10
2023-02-08T02:23:38.405Z,-7.20
2023-02-08T02:26:11.386Z,-7.10
2023-02-08T02:28:57.270Z,-7.20
2023-02-08T02:31:27.308Z,-7.20
2023-02-08T02:33:58.709Z,-7.30
2023-02-08T02:36:33.565Z,-7.30
2023-02-08T02:39:05.520Z,-7.30
2023-02-08T02:41:59.927Z,-7.30
2023-02-08T02:44:46.552Z,-7.30
2023-02-08T02:47:19.646Z,-7.30
2023-02-08T02:50:04.993Z,-7.30
2023-02-08T02:52:36.974Z,-7.30
2023-02-08T02:55:12.750Z,-7.30
2023-02-08T02:57:41.439Z,-7.30
2023-02-08T03:00:10.597Z,-7.40
2023-02-08T03:02:37.825Z,-7.40
2023-02-08T03:05:06.329Z,-7.40
2023-02-08T03:07:49.050Z,-7.40
2023-02-08T03:10:15.913Z,-7.40
2023-02-08T03:12:58.907Z,-7.40
2023-02-08T03:15:37.826Z,-7.50
2023-02-08T03:18:10.890Z,-7.50
2023-02-08T03:20:39.664Z,-7.40
2023-02-08T03:23:09.657Z,-7.50
2023-02-08T03:25:39.638Z,-7.50
2023-02-08T03:28:06.554Z,-7.50
2023-02-08T03:30:46.093Z,-7.50
2023-02-08T03:33:15.804Z,-7.50
2023-02-08T03:35:53.197Z,-7.50
2023-02-08T03:38:22.858Z,-7.60
2023-02-08T03:40:51.149Z,-7.60
2023-02-08T03:43:27.536Z,-7.60
2023-02-08T03:45:57.690Z,-7.70
2023-02-08T03:48:25.408Z,-7.60
2023-02-08T03:50:53.696Z,-7.60
2023-02-08T03:53:22.225Z,-7.70
2023-02-08T03:55:58.555Z,-7.70
2023-02-08T03:58:28.053Z,-7.70
2023-02-08T04:00:56.838Z,-7.70
2023-02-08T04:03:25.652Z,-7.70
2023-02-08T04:05:52.825Z,-7.70
2023-02-08T04:08:20.700Z,-7.70
2023-02-08T04:10:47.823Z,-7.80
2023-02-08T04:13:14.785Z,-7.80
2023-02-08T04:15:41.715Z,-7.80
2023-02-08T04:18:08.721Z,-7.80
2023-02-08T04:20:35.673Z,-7.80
2023-02-08T04:23:02.533Z,-7.80
2023-02-08T04:25:29.428Z,-7.80
2023-02-08T04:27:56.307Z,-7.80
2023-02-08T04:30:23.237Z,-7.80
2023-02-08T04:32:50.338Z,-7.90
2023-02-08T04:35:17.320Z,-7.90
2023-02-08T04:37:45.047Z,-7.90
2023-02-08T04:40:12.029Z,-7.90
2023-02-08T04:42:38.954Z,-7.90
2023-02-08T04:45:06.036Z,-7.90
2023-02-08T04:47:32.928Z,-7.90
2023-02-08T04:49:59.894Z,-7.90
2023-02-08T04:52:26.813Z,-7.90
2023-02-08T04:54:53.680Z,-7.90
2023-02-08T04:57:20.737Z,-7.90
2023-02-08T04:59:47.627Z,-7.90
2023-02-08T05:02:14.482Z,-8.00
2023-02-08T05:04:41.369Z,-7.90
2023-02-08T05:07:08.278Z,-7.90
2023-02-08T05:09:35.159Z,-7.90
2023-02-08T05:12:02.028Z,-7.90
2023-02-08T05:14:28.897Z,-7.80
2023-02-08T05:16:55.777Z,-7.80
2023-02-08T05:19:22.853Z,-7.80
2023-02-08T05:21:49.911Z,-7.80
2023-02-08T05:24:17.161Z,-7.80
2023-02-08T05:26:44.087Z,-7.70
2023-02-08T05:29:11.059Z,-7.60
2023-02-08T05:31:38.093Z,-7.50
2023-02-08T05:34:05.121Z,-7.50
2023-02-08T05:36:32.135Z,-7.50
2023-02-08T05:38:59.141Z,-7.50
2023-02-08T05:41:26.068Z,-7.40
2023-02-08T05:43:52.955Z,-7.30
2023-02-08T05:46:19.842Z,-7.20
2023-02-08T05:48:46.833Z,-7.20
2023-02-08T05:51:13.773Z,-7.20
2023-02-08T05:53:40.813Z,-7.20
2023-02-08T05:56:07.972Z,-7.10
2023-02-08T05:58:34.968Z,-7.00
2023-02-08T06:01:02.458Z,-7.00
2023-02-08T06:03:29.496Z,-7.00
2023-02-08T06:05:59.926Z,-7.00
2023-02-08T06:08:26.862Z,-6.90
2023-02-08T06:10:53.697Z,-6.90
2023-02-08T06:13:20.570Z,-6.80
2023-02-08T06:15:47.457Z,-6.70
2023-02-08T06:18:14.628Z,-6.70
2023-02-08T06:20:41.897Z,-6.60
2023-02-08T06:23:08.966Z,-6.60
2023-02-08T06:25:35.863Z,-6.50
2023-02-08T06:28:03.237Z,-6.40
2023-02-08T06:30:30.237Z,-6.30
2023-02-08T06:32:57.340Z,-6.30
2023-02-08T06:35:24.242Z,-6.30
2023-02-08T06:37:51.124Z,-6.30
2023-02-08T06:40:18.284Z,-6.30
2023-02-08T06:42:46.491Z,-6.20
2023-02-08T06:45:13.780Z,-6.20
2023-02-08T06:47:40.874Z,-6.20
2023-02-08T06:50:08.031Z,-6.20
2023-02-08T06:52:35.228Z,-6.10
2023-02-08T06:55:02.105Z,-6.10
2023-02-08T06:57:28.973Z,-6.00
2023-02-08T06:59:55.836Z,-6.00
2023-02-08T07:02:22.916Z,-6.00
2023-02-08T07:04:50.184Z,-6.00
2023-02-08T07:07:17.433Z,-5.90
2023-02-08T07:09:44.670Z,-5.90
2023-02-08T07:12:11.664Z,-5.80
2023-02-08T07:14:42.567Z,-5.90
2023-02-08T07:17:10.015Z,-5.80
2023-02-08T07:19:36.930Z,-5.70
2023-02-08T07:22:10.475Z,-5.70
2023-02-08T07:24:38.255Z,-5.70
2023-02-08T07:27:05.743Z,-5.70
2023-02-08T07:29:32.916Z,-5.60
2023-02-08T07:32:00.827Z,-5.50
2023-02-08T07:34:32.013Z,-5.40
2023-02-08T07:36:58.964Z,-5.20
2023-02-08T07:39:25.997Z,-4.60
2023-02-08T07:41:53.003Z,-3.60
2023-02-08T07:44:20.218Z,-2.60
2023-02-08T07:46:47.221Z,-2.30
2023-02-08T07:49:14.105Z,-1.90
2023-02-08T07:51:41.202Z,-0.90
2023-02-08T07:54:08.093Z,-0.20
2023-02-08T07:56:35.059Z,-0.10
2023-02-08T07:59:01.951Z,0.90
2023-02-08T08:01:28.859Z,0.50
2023-02-08T08:03:55.919Z,0.00
2023-02-08T08:06:23.353Z,-0.30
2023-02-08T08:08:50.636Z,-0.60
2023-02-08T08:11:18.462Z,-0.80
2023-02-08T08:13:45.689Z,-0.70
2023-02-08T08:16:12.804Z,0.00
2023-02-08T08:18:39.803Z,1.30
2023-02-08T08:21:06.924Z,2.40
2023-02-08T08:23:33.942Z,2.80
2023-02-08T08:26:00.859Z,3.70
2023-02-08T08:28:27.968Z,4.00
2023-02-08T08:30:55.143Z,3.90
2023-02-08T08:33:22.099Z,4.00
2023-02-08T08:35:49.044Z,3.40
2023-02-08T08:38:15.944Z,3.20
2023-02-08T08:40:43.228Z,2.60
2023-02-08T08:43:10.594Z,2.10
2023-02-08T08:45:37.522Z,1.50
2023-02-08T08:48:04.579Z,1.20
2023-02-08T08:50:31.556Z,1.00
2023-02-08T08:52:58.468Z,0.80
2023-02-08T08:55:26.040Z,0.60
2023-02-08T08:57:53.736Z,0.40
2023-02-08T09:00:20.776Z,0.30
2023-02-08T09:02:47.728Z,1.70
2023-02-08T09:05:14.590Z,3.40
2023-02-08T09:07:41.502Z,3.10
2023-02-08T09:10:08.496Z,3.20
2023-02-08T09:12:35.535Z,3.30
2023-02-08T09:15:02.465Z,3.70
2023-02-08T09:17:29.363Z,3.40
2023-02-08T09:19:56.372Z,3.10
2023-02-08T09:22:23.302Z,3.80
2023-02-08T09:24:50.236Z,3.80
2023-02-08T09:27:19.150Z,4.20
2023-02-08T09:29:46.134Z,3.80
2023-02-08T09:32:13.099Z,4.20
2023-02-08T09:34:40.226Z,5.20
2023-02-08T09:37:07.496Z,5.30
2023-02-08T09:39:35.050Z,5.10
2023-02-08T09:42:10.109Z,4.40
2023-02-08T09:44:43.133Z,4.50
2023-02-08T09:47:16.222Z,4.40
2023-02-08T09:49:46.012Z,4.10
2023-02-08T09:52:21.278Z,3.60
2023-02-08T09:54:57.261Z,3.30
2023-02-08T09:57:26.746Z,3.00
2023-02-08T09:59:55.779Z,3.60
2023-02-08T10:02:27.465Z,4.10
2023-02-08T10:04:57.490Z,4.30
2023-02-08T10:07:28.379Z,4.30
2023-02-08T10:09:56.835Z,3.70
2023-02-08T10:12:32.973Z,3.40
2023-02-08T10:15:20.101Z,3.10
2023-02-08T10:18:04.579Z,3.20
2023-02-08T10:20:44.030Z,3.90
2023-02-08T10:23:40.605Z,3.40
2023-02-08T10:26:16.721Z,2.70
2023-02-08T10:28:48.717Z,2.50
2023-02-08T10:31:25.470Z,2.20
2023-02-08T10:34:01.637Z,1.80
2023-02-08T10:36:33.707Z,1.90
2023-02-08T10:39:02.131Z,1.90
2023-02-08T10:41:34.201Z,1.90
2023-02-08T10:44:07.379Z,2.00
2023-02-08T10:46:37.584Z,2.00
2023-02-08T10:49:23.542Z,1.80
2023-02-08T10:51:50.693Z,1.70
2023-02-08T10:54:20.570Z,1.50
2023-02-08T10:56:47.671Z,1.30
2023-02-08T10:59:16.979Z,1.40
2023-02-08T11:01:45.384Z,1.50
2023-02-08T11:04:13.601Z,1.50
2023-02-08T11:06:41.715Z,1.60
2023-02-08T11:09:20.167Z,1.60
2023-02-08T11:11:48.037Z,1.50
2023-02-08T11:14:18.573Z,1.50
2023-02-08T11:16:52.510Z,1.50
2023-02-08T11:19:25.114Z,1.50
2023-02-08T11:21:52.507Z,1.50
2023-02-08T11:24:40.243Z,1.50
2023-02-08T11:27:30.546Z,1.60
2023-02-08T11:30:17.542Z,1.70
2023-02-08T11:32:46.200Z,1.60
2023-02-08T11:35:24.418Z,1.60
2023-02-08T11:37:52.323Z,1.60
2023-02-08T11:40:21.245Z,1.50
2023-02-08T11:42:48.243Z,1.50
2023-02-08T11:45:23.060Z,1.50
2023-02-08T11:47:50.247Z,1.60
2023-02-08T11:50:37.304Z,1.50
2023-02-08T11:53:04.189Z,1.70
2023-02-08T11:55:32.322Z,1.60
2023-02-08T11:58:02.192Z,1.60
2023-02-08T12:00:36.542Z,1.50
2023-02-08T12:03:23.569Z,1.60
2023-02-08T12:05:53.493Z,1.60
2023-02-08T12:08:27.906Z,1.60
2023-02-08T12:10:55.078Z,1.70
2023-02-08T12:13:22.010Z,1.60
2023-02-08T12:15:58.297Z,1.70
2023-02-08T12:18:25.359Z,1.70
2023-02-08T12:20:58.081Z,1.70
2023-02-08T12:23:33.530Z,1.60
2023-02-08T12:26:00.416Z,1.50
2023-02-08T12:28:42.637Z,1.50
2023-02-08T12:31:28.761Z,1.50
2023-02-08T12:33:58.777Z,1.60
2023-02-08T12:36:39.565Z,1.70
2023-02-08T12:39:44.327Z,1.80
2023-02-08T12:42:23.217Z,1.80
2023-02-08T12:45:09.938Z,1.70
2023-02-08T12:48:04.189Z,1.60
2023-02-08T12:50:46.065Z,1.70
2023-02-08T12:53:12.907Z,1.80
2023-02-08T12:55:41.856Z,1.90
2023-02-08T12:58:29.736Z,1.60
2023-02-08T13:01:00.118Z,1.50
2023-02-08T13:03:43.308Z,1.60
2023-02-08T13:06:15.383Z,1.70
2023-02-08T13:09:02.068Z,1.80
2023-02-08T13:11:31.958Z,1.90
2023-02-08T13:14:04.798Z,1.80
2023-02-08T13:16:34.930Z,1.80
2023-02-08T13:19:11.828Z,1.90
2023-02-08T13:21:42.005Z,1.60
2023-02-08T13:24:19.293Z,1.50
2023-02-08T13:26:46.181Z,1.40
2023-02-08T13:29:17.546Z,1.40
2023-02-08T13:31:47.091Z,1.30
2023-02-08T13:34:20.224Z,1.30
2023-02-08T13:36:52.018Z,1.20
2023-02-08T13:39:39.264Z,1.20
2023-02-08T13:42:06.988Z,1.20
2023-02-08T13:44:43.154Z,1.30
2023-02-08T13:47:22.710Z,1.20
2023-02-08T13:49:49.613Z,1.30
2023-02-08T13:52:47.483Z,1.40
2023-02-08T13:55:30.957Z,1.30
2023-02-08T13:57:59.116Z,1.40
2023-02-08T14:00:36.025Z,1.50
2023-02-08T14:03:09.115Z,1.50
2023-02-08T14:05:39.024Z,1.50
2023-02-08T14:08:06.528Z,1.50
2023-02-08T14:10:42.225Z,1.50
2023-02-08T14:13:28.089Z,1.50
2023-02-08T14:16:13.891Z,1.40
2023-02-08T14:18:50.878Z,1.50
2023-02-08T14:21:38.564Z,1.50
2023-02-08T14:24:07.778Z,1.50
2023-02-08T14:26:36.625Z,1.40
2023-02-08T14:29:05.108Z,1.30
2023-02-08T14:31:40.982Z,1.10
2023-02-08T14:34:20.822Z,1.10
2023-02-08T14:36:57.918Z,1.00
2023-02-08T14:39:26.834Z,1.00
2023-02-08T14:41:55.363Z,0.90
2023-02-08T14:44:37.623Z,0.90
2023-02-08T14:47:23.509Z,0.90
2023-02-08T14:49:52.586Z,0.90
2023-02-08T14:52:21.363Z,0.90
2023-02-08T14:54:56.851Z,0.90
2023-02-08T14:57:29.172Z,0.80
2023-02-08T14:59:58.906Z,0.70
2023-02-08T15:02:31.318Z,0.70
2023-02-08T15:04:58.568Z,0.60
2023-02-08T15:07:34.755Z,0.70
2023-02-08T15:10:06.393Z,0.80
2023-02-08T15:16:58.574Z,0.70
2023-02-08T15:19:30.624Z,0.70
2023-02-08T15:22:16.630Z,0.70
2023-02-08T15:24:50.308Z,0.60
2023-02-08T15:27:25.950Z,0.50
2023-02-08T15:29:53.216Z,0.50
2023-02-08T15:32:21.871Z,0.50
2023-02-08T15:34:59.281Z,0.50
2023-02-08T15:37:27.374Z,0.50
2023-02-08T15:39:55.421Z,0.40
2023-02-08T15:42:26.849Z,0.30
2023-02-08T15:44:53.839Z,0.40
2023-02-08T15:47:28.795Z,0.20
2023-02-08T15:49:56.437Z,0.20
2023-02-08T15:52:28.715Z,0.20
2023-02-08T15:54:55.846Z,0.30
2023-02-08T15:57:29.065Z,0.20
2023-02-08T15:59:56.310Z,0.20
2023-02-08T16:02:25.427Z,0.10
2023-02-08T16:04:52.455Z,0.10
2023-02-08T16:07:22.481Z,0.20
2023-02-08T16:09:49.905Z,0.20
2023-02-08T16:12:21.928Z,0.20
2023-02-08T16:14:52.732Z,0.10
2023-02-08T16:17:32.506Z,0.10
2023-02-08T16:19:59.676Z,0.10
2023-02-08T16:22:31.019Z,0.00
2023-02-08T16:25:16.781Z,-0.10
2023-02-08T16:27:47.384Z,0.00
2023-02-08T16:30:17.263Z,0.00
2023-02-08T16:32:44.924Z,0.00
2023-02-08T16:35:12.905Z,0.00
2023-02-08T16:37:40.626Z,-0.10
2023-02-08T16:40:27.960Z,-0.10
2023-02-08T16:43:14.902Z,-0.10
2023-02-08T16:45:42.216Z,-0.10
2023-02-08T16:48:31.054Z,-0.10
2023-02-08T16:50:58.513Z,-0.10
2023-02-08T16:53:40.240Z,-0.10
2023-02-08T16:56:09.421Z,-0.10
2023-02-08T16:58:36.614Z,-0.20
2023-02-08T17:01:05.778Z,-0.10
2023-02-08T17:03:33.269Z,-0.20
2023-02-08T17:06:01.175Z,-0.10
2023-02-08T17:08:28.364Z,-0.20
2023-02-08T17:10:59.207Z,-0.20
2023-02-08T17:13:27.638Z,-0.20
2023-02-08T17:15:54.906Z,-0.10
2023-02-08T17:18:22.393Z,-0.10
2023-02-08T17:20:49.897Z,-0.10
2023-02-08T17:23:17.259Z,-0.10
2023-02-08T17:25:44.944Z,-0.20
2023-02-08T17:28:16.498Z,-0.20
2023-02-08T17:30:46.071Z,-0.20
2023-02-08T17:33:20.080Z,-0.10
2023-02-08T17:35:48.819Z,-0.10
2023-02-08T17:38:16.798Z,-0.10
2023-02-08T17:40:44.411Z,-0.20
2023-02-08T17:43:12.711Z,-0.10
2023-02-08T17:45:41.409Z,-0.10
2023-02-08T17:48:09.157Z,-0.10
2023-02-08T17:50:37.098Z,0.00
2023-02-08T17:53:05.212Z,-0.10
2023-02-08T17:55:33.786Z,-0.10
2023-02-08T17:58:01.396Z,-0.10
2023-02-08T18:00:28.883Z,-0.10
2023-02-08T18:02:59.055Z,0.00
2023-02-08T18:05:28.962Z,-0.10
2023-02-08T18:07:57.070Z,-0.10
2023-02-08T18:10:25.866Z,-0.10
2023-02-08T18:12:56.914Z,-0.10
2023-02-08T18:15:24.824Z,-0.10
2023-02-08T18:17:52.647Z,0.00
2023-02-08T18:20:20.528Z,0.00
2023-02-08T18:22:48.279Z,0.00
2023-02-08T18:25:16.414Z,0.00
2023-02-08T18:27:44.286Z,0.00
2023-02-08T18:30:12.424Z,0.00
2023-02-08T18:32:40.268Z,0.00
2023-02-08T18:35:09.375Z,0.00
2023-02-08T18:37:37.459Z,0.00
2023-02-08T18:40:07.176Z,0.00
2023-02-08T18:42:36.305Z,0.00
2023-02-08T18:45:05.295Z,0.00
2023-02-08T18:47:34.522Z,-0.20
2023-02-08T18:50:02.549Z,-0.20
2023-02-08T18:52:31.618Z,-0.40
2023-02-08T18:55:00.018Z,-0.30
2023-02-08T18:57:27.948Z,-0.30
2023-02-08T18:59:56.630Z,-0.20
2023-02-08T19:02:27.015Z,-0.30
2023-02-08T19:04:54.753Z,-0.20
2023-02-08T19:07:23.017Z,-0.20
2023-02-08T19:09:50.956Z,-0.20
2023-02-08T19:12:19.661Z,-0.10
2023-02-08T19:14:51.475Z,-0.20
2023-02-08T19:17:19.770Z,-0.20
2023-02-08T19:19:48.345Z,-0.10
2023-02-08T19:22:16.493Z,-0.10
2023-02-08T19:24:54.699Z,-0.10
2023-02-08T19:27:23.437Z,-0.10
2023-02-08T19:29:53.691Z,-0.10
2023-02-08T19:32:21.942Z,-0.10
2023-02-08T19:34:49.977Z,-0.20
2023-02-08T19:37:18.515Z,-0.20
2023-02-08T19:39:46.465Z,-0.20
2023-02-08T19:42:14.340Z,-0.20
2023-02-08T19:44:42.213Z,-0.20
2023-02-08T19:47:10.390Z,-0.20
2023-02-08T19:49:37.794Z,-0.20
2023-02-08T19:52:05.692Z,-0.20
2023-02-08T19:54:33.815Z,-0.20
2023-02-08T19:57:01.738Z,-0.20
2023-02-08T19:59:34.888Z,-0.20
2023-02-08T20:02:03.272Z,-0.20
2023-02-08T20:04:31.414Z,-0.20
2023-02-08T20:06:59.326Z,-0.20
2023-02-08T20:09:27.442Z,-0.20
2023-02-08T20:11:57.361Z,-0.20
2023-02-08T20:14:30.552Z,-0.20
2023-02-08T20:16:58.416Z,-0.20
2023-02-08T20:19:26.386Z,-0.20
2023-02-08T20:21:57.000Z,-0.30
2023-02-08T20:24:24.621Z,-0.20
2023-02-08T20:26:52.700Z,-0.20
2023-02-08T20:29:21.517Z,-0.20
2023-02-08T20:31:52.546Z,-0.30
2023-02-08T20:34:20.478Z,-0.40
2023-02-08T20:37:05.705Z,-0.30
2023-02-08T20:39:35.322Z,-0.30
2023-02-08T20:42:03.577Z,-0.30
2023-02-08T20:44:32.096Z,-0.30
2023-02-08T20:47:01.542Z,-0.30
2023-02-08T20:49:29.990Z,-0.30
2023-02-08T20:51:57.676Z,-0.30
2023-02-08T20:54:25.613Z,-0.30
2023-02-08T20:56:54.101Z,-0.40
2023-02-08T20:59:21.926Z,-0.40
2023-02-08T21:01:49.949Z,-0.30
2023-02-08T21:04:18.278Z,-0.40
2023-02-08T21:06:46.533Z,-0.50
2023-02-08T21:09:16.161Z,-0.40
2023-02-08T21:11:43.761Z,-0.40
2023-02-08T21:14:19.147Z,-0.40
2023-02-08T21:16:48.161Z,-0.40
2023-02-08T21:19:15.899Z,-0.40
2023-02-08T21:21:42.915Z,-0.40
2023-02-08T21:24:11.724Z,-0.50
2023-02-08T21:26:39.271Z,-0.40
2023-02-08T21:29:06.763Z,-0.40
2023-02-08T21:31:34.771Z,-0.40
2023-02-08T21:34:02.313Z,-0.40
2023-02-08T21:36:29.712Z,-0.40
2023-02-08T21:38:59.755Z,-0.50
2023-02-08T21:41:28.523Z,-0.50
2023-02-08T21:43:56.599Z,-0.50
2023-02-08T21:46:28.502Z,-0.50
2023-02-08T21:49:15.511Z,-0.50
2023-02-08T21:52:01.271Z,-0.50
2023-02-08T21:54:29.832Z,-0.60
2023-02-08T21:57:00.249Z,-0.60
2023-02-08T21:59:27.510Z,-0.60
2023-02-08T22:01:54.704Z,-0.70
2023-02-08T22:04:21.780Z,-0.70
2023-02-08T22:06:52.253Z,-0.70
2023-02-08T22:09:20.050Z,-0.70
2023-02-08T22:11:50.368Z,-0.80
2023-02-08T22:14:17.329Z,-0.90
2023-02-08T22:16:44.274Z,-0.80
2023-02-08T22:19:11.171Z,-0.80
2023-02-08T22:21:38.126Z,-0.80
2023-02-08T22:24:05.131Z,-0.80
2023-02-08T22:26:32.074Z,-0.80
2023-02-08T22:28:58.998Z,-0.90
2023-02-08T22:31:26.071Z,-1.00
2023-02-08T22:33:54.769Z,-1.10
2023-02-08T22:36:21.737Z,-1.10
2023-02-08T22:38:48.650Z,-1.10
2023-02-08T22:41:16.382Z,-1.10
2023-02-08T22:43:43.620Z,-1.00
2023-02-08T22:46:10.791Z,-1.00
2023-02-08T22:48:37.699Z,-1.10
2023-02-08T22:51:08.767Z,-1.00
2023-02-08T22:53:35.838Z,-1.10
2023-02-08T22:56:03.147Z,-1.10
2023-02-08T22:58:30.113Z,-1.10
2023-02-08T23:00:57.037Z,-1.10
2023-02-08T23:03:24.023Z,-1.10
2023-02-08T23:05:51.627Z,-1.10
2023-02-08T23:08:19.714Z,-1.10
2023-02-08T23:10:46.877Z,-1.10
2023-02-08T23:13:13.944Z,-1.10
2023-02-08T23:15:41.977Z,-1.10
2023-02-08T23:18:09.308Z,-1.10
2023-02-08T23:20:37.342Z,-1.10
2023-02-08T23:23:04.312Z,-1.20
2023-02-08T23:25:31.445Z,-1.10
2023-02-08T23:27:58.427Z,-1.10
2023-02-08T23:30:25.568Z,-1.20
2023-02-08T23:32:52.451Z,-1.20
2023-02-08T23:35:19.398Z,-1.30
2023-02-08T23:37:46.327Z,-1.20
2023-02-08T23:40:13.420Z,-1.20
2023-02-08T23:42:40.484Z,-1.30
2023-02-08T23:45:07.880Z,-1.30
2023-02-08T23:47:35.048Z,-1.30
2023-02-08T23:50:01.952Z,-1.30
2023-02-08T23:52:28.803Z,-1.30
2023-02-08T23:54:55.839Z,-1.30
2023-02-08T23:57:22.680Z,-1.30
2023-02-08T23:59:49.657Z,-1.40
